createdAt,value
2018-05-21T00:00:34.567Z,10.66
2018-05-21T00:01:34.557Z,10.79
2018-05-21T00:02:34.543Z,10.67
2018-05-21T00:03:34.529Z,10.73
2018-05-21T00:04:34.520Z,10.76
2018-05-21T00:05:34.506Z,10.70
2018-05-21T00:06:34.504Z,10.70
2018-05-21T00:07:34.483Z,10.73
2018-05-21T00:08:34.467Z,10.67
2018-05-21T00:09:34.457Z,10.63
2018-05-21T00:10:34.449Z,10.61
2018-05-21T00:11:34.431Z,10.63
2018-05-21T00:12:34.419Z,10.68
2018-05-21T00:13:34.409Z,10.64
2018-05-21T00:14:34.394Z,10.59
2018-05-21T00:15:34.418Z,10.64
2018-05-21T00:16:34.379Z,10.55
2018-05-21T00:17:34.363Z,10.56
2018-05-21T00:18:34.347Z,10.64
2018-05-21T00:19:34.345Z,10.59
2018-05-21T00:20:34.329Z,10.52
2018-05-21T00:21:34.319Z,10.59
2018-05-21T00:22:34.305Z,10.59
2018-05-21T00:23:34.290Z,10.56
2018-05-21T00:24:34.277Z,10.63
2018-05-21T00:25:34.268Z,10.64
2018-05-21T00:26:34.252Z,10.61
2018-05-21T00:27:34.243Z,10.60
2018-05-21T00:28:34.226Z,10.59
2018-05-21T00:29:34.220Z,10.55
2018-05-21T00:30:34.205Z,10.56
2018-05-21T00:31:34.197Z,10.52
2018-05-21T00:32:34.181Z,10.55
2018-05-21T00:33:34.169Z,10.53
2018-05-21T00:34:34.159Z,10.52
2018-05-21T00:35:34.151Z,10.48
2018-05-21T00:36:34.151Z,10.55
2018-05-21T00:37:34.129Z,10.53
2018-05-21T00:38:34.118Z,10.53
2018-05-21T00:39:34.101Z,10.52
2018-05-21T00:40:34.089Z,10.53
2018-05-21T00:41:34.076Z,10.51
2018-05-21T00:42:34.060Z,10.48
2018-05-21T00:43:34.065Z,10.45
2018-05-21T00:44:34.042Z,10.45
2018-05-21T00:45:34.030Z,10.41
2018-05-21T00:46:34.020Z,10.27
2018-05-21T00:47:34.005Z,10.29
2018-05-21T00:48:33.994Z,10.23
2018-05-21T00:49:33.980Z,10.22
2018-05-21T00:50:33.968Z,10.25
2018-05-21T00:51:33.954Z,10.26
2018-05-21T00:52:33.944Z,10.22
2018-05-21T00:53:33.934Z,10.26
2018-05-21T00:54:33.931Z,10.17
2018-05-21T00:55:33.909Z,10.15
2018-05-21T00:56:33.893Z,10.23
2018-05-21T00:57:33.881Z,10.18
2018-05-21T00:58:33.869Z,10.23
2018-05-21T00:59:33.859Z,10.22
2018-05-21T01:00:33.849Z,10.29
2018-05-21T01:01:33.836Z,10.27
2018-05-21T01:02:33.823Z,10.29
2018-05-21T01:03:33.811Z,10.34
2018-05-21T01:04:33.805Z,10.30
2018-05-21T01:05:33.788Z,10.30
2018-05-21T01:06:33.776Z,10.23
2018-05-21T01:07:33.758Z,10.26
2018-05-21T01:08:33.755Z,10.17
2018-05-21T01:09:33.742Z,10.20
2018-05-21T01:10:33.732Z,10.22
2018-05-21T01:11:33.717Z,10.22
2018-05-21T01:12:33.706Z,10.22
2018-05-21T01:13:33.688Z,10.20
2018-05-21T01:14:33.679Z,10.25
2018-05-21T01:15:33.667Z,10.15
2018-05-21T01:16:33.653Z,10.20
2018-05-21T01:17:33.644Z,10.18
2018-05-21T01:18:33.632Z,10.25
2018-05-21T01:19:33.619Z,10.14
2018-05-21T01:20:33.604Z,10.20
2018-05-21T01:21:33.592Z,10.15
2018-05-21T01:22:33.579Z,10.18
2018-05-21T01:23:33.569Z,10.12
2018-05-21T01:24:33.557Z,10.15
2018-05-21T01:25:33.545Z,10.17
2018-05-21T01:26:33.534Z,10.18
2018-05-21T01:27:33.514Z,10.09
2018-05-21T01:28:33.508Z,10.05
2018-05-21T01:29:33.498Z,10.11
2018-05-21T01:30:33.484Z,10.23
2018-05-21T01:31:33.474Z,10.20
2018-05-21T01:32:33.457Z,10.11
2018-05-21T01:33:33.448Z,10.14
2018-05-21T01:34:33.435Z,10.22
2018-05-21T01:35:33.425Z,10.18
2018-05-21T01:36:33.412Z,10.12
2018-05-21T01:37:33.400Z,10.20
2018-05-21T01:38:33.385Z,10.18
2018-05-21T01:39:33.373Z,10.09
2018-05-21T01:40:33.363Z,10.09
2018-05-21T01:41:33.345Z,10.20
2018-05-21T01:42:33.335Z,10.07
2018-05-21T01:43:33.329Z,10.07
2018-05-21T01:44:33.316Z,10.18
2018-05-21T01:45:33.300Z,10.17
2018-05-21T01:46:33.287Z,10.09
2018-05-21T01:47:33.275Z,10.12
2018-05-21T01:48:33.261Z,10.14
2018-05-21T01:49:33.253Z,10.18
2018-05-21T01:50:33.242Z,10.22
2018-05-21T01:51:33.228Z,10.25
2018-05-21T01:52:33.220Z,10.22
2018-05-21T01:53:33.202Z,10.29
2018-05-21T01:54:33.191Z,10.32
2018-05-21T01:55:33.177Z,10.30
2018-05-21T01:56:33.168Z,10.33
2018-05-21T01:57:33.156Z,10.33
2018-05-21T01:58:33.143Z,10.32
2018-05-21T01:59:33.130Z,10.44
2018-05-21T02:00:33.118Z,10.48
2018-05-21T02:01:33.108Z,10.42
2018-05-21T02:02:33.091Z,10.41
2018-05-21T02:03:33.086Z,10.42
2018-05-21T02:04:33.073Z,10.48
2018-05-21T02:05:33.056Z,10.42
2018-05-21T02:06:33.046Z,10.48
2018-05-21T02:07:33.029Z,10.29
2018-05-21T02:08:33.067Z,10.34
2018-05-21T02:09:33.012Z,10.32
2018-05-21T02:10:33.001Z,10.33
2018-05-21T02:11:32.983Z,10.34
2018-05-21T02:12:32.974Z,10.33
2018-05-21T02:13:32.955Z,10.36
2018-05-21T02:14:32.950Z,10.30
2018-05-21T02:15:32.939Z,10.32
2018-05-21T02:16:32.925Z,10.32
2018-05-21T02:17:32.913Z,10.34
2018-05-21T02:18:32.899Z,10.26
2018-05-21T02:19:32.887Z,10.25
2018-05-21T02:20:32.913Z,10.22
2018-05-21T02:21:32.864Z,10.18
2018-05-21T02:22:32.850Z,10.23
2018-05-21T02:23:32.835Z,10.22
2018-05-21T02:24:32.828Z,10.20
2018-05-21T02:25:32.811Z,10.26
2018-05-21T02:26:32.800Z,10.23
2018-05-21T02:27:32.791Z,10.22
2018-05-21T02:28:32.778Z,10.25
2018-05-21T02:29:32.772Z,10.30
2018-05-21T02:30:32.750Z,10.29
2018-05-21T02:31:32.747Z,10.26
2018-05-21T02:32:32.732Z,10.27
2018-05-21T02:33:32.712Z,10.29
2018-05-21T02:34:32.716Z,10.20
2018-05-21T02:35:32.691Z,10.30
2018-05-21T02:36:32.680Z,10.29
2018-05-21T02:37:32.666Z,10.34
2018-05-21T02:38:32.654Z,10.36
2018-05-21T02:39:32.646Z,10.41
2018-05-21T02:40:32.632Z,10.40
2018-05-21T02:41:32.623Z,10.44
2018-05-21T02:42:32.606Z,10.44
2018-05-21T02:43:32.594Z,10.45
2018-05-21T02:44:32.584Z,10.40
2018-05-21T02:45:32.569Z,10.45
2018-05-21T02:46:32.563Z,10.51
2018-05-21T02:47:32.550Z,10.45
2018-05-21T02:48:32.538Z,10.40
2018-05-21T02:49:32.527Z,10.45
2018-05-21T02:50:32.508Z,10.45
2018-05-21T02:51:32.496Z,10.48
2018-05-21T02:52:32.487Z,10.52
2018-05-21T02:53:32.476Z,10.47
2018-05-21T02:54:32.457Z,10.53
2018-05-21T02:55:32.449Z,10.48
2018-05-21T02:56:32.439Z,10.47
2018-05-21T02:57:32.425Z,10.42
2018-05-21T02:58:32.417Z,10.47
2018-05-21T02:59:32.400Z,10.44
2018-05-21T03:00:32.388Z,10.48
2018-05-21T03:01:32.370Z,10.42
2018-05-21T03:02:32.365Z,10.45
2018-05-21T03:03:32.351Z,10.42
2018-05-21T03:04:32.339Z,10.41
2018-05-21T03:05:32.325Z,10.30
2018-05-21T03:06:32.317Z,10.36
2018-05-21T03:07:32.305Z,10.36
2018-05-21T03:08:32.294Z,10.33
2018-05-21T03:09:32.281Z,10.33
2018-05-21T03:10:32.267Z,10.33
2018-05-21T03:11:32.252Z,10.34
2018-05-21T03:12:32.240Z,10.33
2018-05-21T03:13:32.271Z,10.26
2018-05-21T03:14:32.216Z,10.23
2018-05-21T03:15:32.205Z,10.17
2018-05-21T03:16:32.194Z,10.22
2018-05-21T03:17:32.183Z,10.15
2018-05-21T03:18:32.167Z,10.15
2018-05-21T03:19:32.153Z,10.12
2018-05-21T03:20:32.148Z,10.20
2018-05-21T03:21:32.131Z,10.07
2018-05-21T03:22:32.123Z,10.18
2018-05-21T03:23:32.113Z,10.15
2018-05-21T03:24:32.103Z,10.15
2018-05-21T03:25:32.081Z,10.09
2018-05-21T03:26:32.070Z,10.20
2018-05-21T03:27:32.059Z,10.14
2018-05-21T03:28:32.049Z,10.12
2018-05-21T03:29:32.037Z,10.14
2018-05-21T03:30:32.023Z,10.08
2018-05-21T03:31:32.007Z,10.20
2018-05-21T03:32:31.997Z,10.15
2018-05-21T03:33:31.989Z,10.15
2018-05-21T03:34:31.975Z,10.02
2018-05-21T03:35:31.962Z,10.04
2018-05-21T03:36:31.956Z,9.97
2018-05-21T03:37:31.938Z,10.02
2018-05-21T03:38:31.922Z,9.96
2018-05-21T03:39:31.913Z,9.97
2018-05-21T03:40:31.900Z,10.04
2018-05-21T03:41:31.890Z,9.99
2018-05-21T03:42:31.868Z,9.89
2018-05-21T03:43:31.861Z,9.91
2018-05-21T03:44:31.853Z,9.86
2018-05-21T03:45:31.868Z,9.86
2018-05-21T03:46:31.823Z,9.96
2018-05-21T03:47:31.813Z,10.07
2018-05-21T03:48:31.801Z,9.94
2018-05-21T03:49:31.791Z,10.02
2018-05-21T03:50:31.771Z,9.96
2018-05-21T03:51:31.762Z,10.04
2018-05-21T03:52:31.752Z,9.97
2018-05-21T03:53:31.744Z,10.01
2018-05-21T03:54:31.728Z,10.04
2018-05-21T03:55:31.712Z,10.01
2018-05-21T03:56:31.699Z,9.97
2018-05-21T03:57:31.686Z,10.05
2018-05-21T03:58:31.682Z,9.94
2018-05-21T03:59:31.665Z,10.05
2018-05-21T04:00:31.647Z,10.02
2018-05-21T04:01:31.643Z,10.05
2018-05-21T04:02:31.632Z,10.12
2018-05-21T04:03:31.616Z,10.15
2018-05-21T04:04:31.704Z,10.07
2018-05-21T04:05:31.592Z,10.12
2018-05-21T04:06:31.576Z,10.20
2018-05-21T04:07:31.564Z,10.08
2018-05-21T04:08:31.551Z,10.09
2018-05-21T04:09:31.541Z,10.22
2018-05-21T04:10:31.533Z,10.14
2018-05-21T04:11:31.517Z,10.12
2018-05-21T04:12:31.504Z,10.20
2018-05-21T04:13:31.493Z,10.12
2018-05-21T04:14:31.484Z,10.23
2018-05-21T04:15:31.469Z,10.08
2018-05-21T04:16:31.457Z,10.12
2018-05-21T04:17:31.449Z,10.23
2018-05-21T04:18:31.431Z,10.23
2018-05-21T04:19:31.421Z,10.22
2018-05-21T04:20:31.404Z,10.25
2018-05-21T04:21:31.395Z,10.20
2018-05-21T04:22:31.385Z,10.23
2018-05-21T04:23:31.375Z,10.18
2018-05-21T04:24:31.356Z,10.32
2018-05-21T04:25:31.406Z,10.26
2018-05-21T04:26:31.331Z,10.23
2018-05-21T04:27:31.322Z,10.20
2018-05-21T04:28:31.310Z,10.22
2018-05-21T04:29:31.296Z,10.22
2018-05-21T04:30:31.286Z,10.18
2018-05-21T04:31:31.273Z,10.23
2018-05-21T04:32:31.259Z,10.25
2018-05-21T04:33:31.247Z,10.22
2018-05-21T04:34:31.228Z,10.25
2018-05-21T04:35:31.227Z,10.18
2018-05-21T04:36:31.235Z,10.12
2018-05-21T04:37:31.194Z,10.22
2018-05-21T04:38:31.188Z,10.25
2018-05-21T04:39:31.171Z,10.23
2018-05-21T04:40:31.159Z,10.23
2018-05-21T04:41:31.146Z,10.27
2018-05-21T04:42:31.134Z,10.14
2018-05-21T04:43:31.128Z,10.12
2018-05-21T04:44:31.112Z,10.09
2018-05-21T04:45:31.098Z,10.08
2018-05-21T04:46:31.084Z,10.08
2018-05-21T04:47:31.082Z,10.18
2018-05-21T04:48:31.084Z,10.17
2018-05-21T04:49:31.051Z,10.12
2018-05-21T04:50:31.038Z,10.09
2018-05-21T04:51:31.023Z,10.15
2018-05-21T04:52:31.010Z,10.11
2018-05-21T04:53:31.007Z,10.08
2018-05-21T04:54:30.989Z,10.12
2018-05-21T04:55:30.974Z,10.05
2018-05-21T04:56:30.966Z,10.11
2018-05-21T04:57:30.953Z,10.11
2018-05-21T04:58:30.944Z,10.11
2018-05-21T04:59:30.930Z,10.09
2018-05-21T05:00:30.916Z,10.15
2018-05-21T05:01:30.907Z,10.12
2018-05-21T05:02:30.886Z,10.11
2018-05-21T05:03:30.880Z,10.12
2018-05-21T05:04:30.873Z,10.09
2018-05-21T05:05:30.852Z,10.08
2018-05-21T05:06:30.840Z,10.18
2018-05-21T05:07:30.831Z,10.08
2018-05-21T05:08:30.815Z,10.14
2018-05-21T05:09:30.803Z,10.08
2018-05-21T05:10:30.793Z,10.09
2018-05-21T05:11:30.783Z,10.12
2018-05-21T05:12:30.763Z,10.09
2018-05-21T05:13:30.754Z,10.12
2018-05-21T05:14:30.742Z,10.12
2018-05-21T05:15:30.730Z,10.17
2018-05-21T05:16:30.720Z,10.12
2018-05-21T05:17:30.709Z,10.17
2018-05-21T05:18:30.688Z,10.20
2018-05-21T05:19:30.683Z,10.25
2018-05-21T05:20:30.674Z,10.23
2018-05-21T05:21:30.657Z,10.22
2018-05-21T05:22:30.641Z,10.14
2018-05-21T05:23:30.633Z,10.15
2018-05-21T05:24:30.619Z,10.15
2018-05-21T05:25:30.610Z,10.09
2018-05-21T05:26:30.661Z,10.15
2018-05-21T05:27:30.582Z,10.20
2018-05-21T05:28:30.569Z,10.12
2018-05-21T05:29:30.559Z,10.12
2018-05-21T05:30:30.546Z,10.05
2018-05-21T05:31:30.533Z,10.11
2018-05-21T05:32:30.524Z,10.14
2018-05-21T05:33:30.507Z,10.12
2018-05-21T05:34:30.502Z,10.23
2018-05-21T05:35:30.481Z,10.18
2018-05-21T05:36:30.473Z,10.20
2018-05-21T05:37:30.457Z,10.26
2018-05-21T05:38:30.448Z,10.18
2018-05-21T05:39:30.437Z,10.22
2018-05-21T05:40:30.418Z,10.20
2018-05-21T05:41:30.410Z,10.26
2018-05-21T05:42:30.393Z,10.30
2018-05-21T05:43:30.382Z,10.34
2018-05-21T05:44:30.381Z,10.33
2018-05-21T05:45:30.363Z,10.33
2018-05-21T05:46:30.346Z,10.33
2018-05-21T05:47:30.334Z,10.34
2018-05-21T05:48:30.325Z,10.33
2018-05-21T05:49:30.310Z,10.36
2018-05-21T05:50:30.292Z,10.29
2018-05-21T05:51:30.286Z,10.34
2018-05-21T05:52:30.272Z,10.29
2018-05-21T05:53:30.263Z,10.30
2018-05-21T05:54:30.246Z,10.33
2018-05-21T05:55:30.245Z,10.42
2018-05-21T05:56:30.230Z,10.36
2018-05-21T05:57:30.212Z,10.30
2018-05-21T05:58:30.197Z,10.44
2018-05-21T05:59:30.187Z,10.48
2018-05-21T06:00:30.178Z,10.42
2018-05-21T06:01:30.160Z,10.45
2018-05-21T06:02:30.151Z,10.52
2018-05-21T06:03:30.140Z,10.59
2018-05-21T06:04:30.122Z,10.59
2018-05-21T06:05:30.113Z,10.70
2018-05-21T06:06:30.101Z,10.89
2018-05-21T06:07:30.090Z,11.00
2018-05-21T06:08:30.081Z,11.06
2018-05-21T06:09:30.074Z,11.18
2018-05-21T06:10:30.051Z,11.27
2018-05-21T06:11:30.043Z,11.37
2018-05-21T06:12:30.027Z,11.40
2018-05-21T06:13:30.019Z,11.54
2018-05-21T06:14:30.003Z,11.60
2018-05-21T06:15:30.000Z,11.65
2018-05-21T06:16:29.986Z,11.76
2018-05-21T06:17:29.968Z,11.85
2018-05-21T06:18:29.955Z,11.91
2018-05-21T06:19:29.945Z,11.95
2018-05-21T06:20:29.930Z,12.04
2018-05-21T06:21:29.921Z,12.13
2018-05-21T06:22:29.908Z,12.24
2018-05-21T06:23:29.899Z,12.31
2018-05-21T06:24:29.884Z,12.37
2018-05-21T06:25:29.875Z,12.45
2018-05-21T06:26:29.863Z,12.52
2018-05-21T06:27:29.853Z,12.59
2018-05-21T06:28:29.833Z,12.65
2018-05-21T06:29:29.825Z,12.67
2018-05-21T06:30:29.817Z,12.75
2018-05-21T06:31:29.806Z,12.82
2018-05-21T06:32:29.794Z,12.79
2018-05-21T06:33:29.782Z,12.85
2018-05-21T06:34:29.809Z,12.95
2018-05-21T06:35:29.757Z,13.04
2018-05-21T06:36:29.745Z,13.07
2018-05-21T06:37:29.735Z,13.19
2018-05-21T06:38:29.725Z,13.25
2018-05-21T06:39:29.712Z,13.26
2018-05-21T06:40:29.702Z,13.29
2018-05-21T06:41:29.690Z,13.41
2018-05-21T06:42:29.682Z,13.54
2018-05-21T06:43:29.662Z,13.49
2018-05-21T06:44:29.660Z,13.52
2018-05-21T06:45:29.706Z,13.54
2018-05-21T06:46:29.630Z,13.54
2018-05-21T06:47:29.625Z,13.59
2018-05-21T06:48:29.611Z,13.62
2018-05-21T06:49:29.597Z,13.64
2018-05-21T06:50:29.589Z,13.64
2018-05-21T06:51:29.573Z,13.89
2018-05-21T06:52:29.568Z,13.88
2018-05-21T06:53:29.556Z,13.97
2018-05-21T06:54:29.549Z,14.04
2018-05-21T06:55:29.535Z,14.09
2018-05-21T06:56:29.520Z,14.20
2018-05-21T06:57:29.514Z,14.24
2018-05-21T06:58:29.503Z,14.35
2018-05-21T06:59:29.488Z,14.39
2018-05-21T07:00:29.484Z,14.45
2018-05-21T07:01:29.470Z,14.54
2018-05-21T07:02:29.457Z,14.58
2018-05-21T07:03:29.446Z,14.58
2018-05-21T07:04:29.438Z,14.62
2018-05-21T07:05:29.427Z,14.65
2018-05-21T07:06:29.415Z,14.70
2018-05-21T07:07:29.412Z,14.73
2018-05-21T07:08:29.394Z,14.81
2018-05-21T07:09:29.390Z,14.84
2018-05-21T07:10:29.369Z,14.88
2018-05-21T07:11:29.365Z,14.77
2018-05-21T07:12:29.354Z,14.77
2018-05-21T07:13:29.338Z,14.84
2018-05-21T07:14:29.336Z,14.83
2018-05-21T07:15:29.318Z,15.01
2018-05-21T07:16:29.309Z,15.01
2018-05-21T07:17:29.304Z,14.75
2018-05-21T07:18:29.287Z,14.84
2018-05-21T07:19:29.284Z,14.94
2018-05-21T07:20:29.266Z,14.94
2018-05-21T07:21:29.265Z,15.09
2018-05-21T07:22:29.247Z,15.09
2018-05-21T07:23:29.238Z,15.13
2018-05-21T07:24:29.281Z,15.19
2018-05-21T07:25:29.216Z,15.25
2018-05-21T07:26:29.208Z,15.34
2018-05-21T07:27:29.193Z,15.47
2018-05-21T07:28:29.189Z,15.54
2018-05-21T07:29:29.183Z,15.60
2018-05-21T07:30:29.169Z,15.54
2018-05-21T07:31:29.215Z,15.68
2018-05-21T07:32:29.188Z,15.69
2018-05-21T07:33:29.140Z,15.83
2018-05-21T07:34:29.124Z,15.84
2018-05-21T07:35:29.118Z,15.90
2018-05-21T07:36:29.112Z,16.01
2018-05-21T07:37:29.100Z,16.08
2018-05-21T07:38:29.093Z,16.09
2018-05-21T07:39:29.088Z,16.05
2018-05-21T07:40:29.072Z,16.17
2018-05-21T07:41:29.060Z,16.21
2018-05-21T07:42:29.055Z,16.27
2018-05-21T07:43:29.047Z,16.31
2018-05-21T07:44:29.031Z,16.33
2018-05-21T07:45:29.037Z,16.31
2018-05-21T07:46:29.015Z,16.35
2018-05-21T07:47:29.009Z,16.45
2018-05-21T07:48:29.000Z,16.53
2018-05-21T07:49:28.990Z,16.58
2018-05-21T07:50:28.986Z,16.67
2018-05-21T07:51:29.005Z,16.68
2018-05-21T07:52:28.958Z,16.75
2018-05-21T07:53:28.948Z,16.88
2018-05-21T07:54:28.944Z,16.91
2018-05-21T07:55:28.931Z,16.91
2018-05-21T07:56:28.914Z,16.86
2018-05-21T07:57:28.912Z,16.82
2018-05-21T07:58:28.902Z,16.88
2018-05-21T07:59:28.896Z,16.94
2018-05-21T08:00:28.887Z,16.83
2018-05-21T08:01:28.875Z,16.83
2018-05-21T08:02:28.872Z,16.71
2018-05-21T08:03:28.857Z,16.88
2018-05-21T08:04:28.851Z,16.88
2018-05-21T08:05:28.837Z,16.97
2018-05-21T08:06:28.829Z,16.96
2018-05-21T08:07:28.823Z,17.01
2018-05-21T08:08:28.814Z,17.06
2018-05-21T08:09:28.797Z,17.04
2018-05-21T08:10:28.796Z,17.07
2018-05-21T08:11:28.782Z,17.15
2018-05-21T08:12:28.779Z,17.16
2018-05-21T08:13:28.766Z,17.23
2018-05-21T08:14:28.775Z,17.21
2018-05-21T08:15:28.748Z,17.18
2018-05-21T08:16:28.741Z,17.18
2018-05-21T08:17:28.733Z,17.08
2018-05-21T08:18:28.725Z,17.01
2018-05-21T08:19:28.716Z,16.97
2018-05-21T08:20:28.707Z,17.07
2018-05-21T08:21:28.699Z,17.11
2018-05-21T08:22:28.687Z,17.16
2018-05-21T08:23:28.681Z,17.11
2018-05-21T08:24:28.676Z,17.08
2018-05-21T08:25:28.660Z,17.15
2018-05-21T08:26:28.647Z,17.12
2018-05-21T08:27:28.649Z,17.23
2018-05-21T08:28:28.636Z,17.23
2018-05-21T08:29:28.626Z,17.15
2018-05-21T08:30:28.616Z,17.21
2018-05-21T08:31:28.611Z,17.33
2018-05-21T08:32:28.599Z,17.33
2018-05-21T08:33:28.596Z,17.14
2018-05-21T08:34:28.583Z,17.28
2018-05-21T08:35:28.575Z,17.37
2018-05-21T08:36:28.567Z,17.26
2018-05-21T08:37:28.564Z,17.33
2018-05-21T08:38:28.548Z,17.43
2018-05-21T08:39:28.540Z,17.44
2018-05-21T08:40:28.529Z,17.55
2018-05-21T08:41:28.531Z,17.56
2018-05-21T08:42:28.519Z,17.70
2018-05-21T08:43:28.503Z,17.62
2018-05-21T08:44:28.497Z,17.72
2018-05-21T08:45:28.487Z,17.75
2018-05-21T08:46:28.477Z,17.79
2018-05-21T08:47:28.472Z,17.90
2018-05-21T08:48:28.468Z,17.78
2018-05-21T08:49:28.454Z,17.68
2018-05-21T08:50:28.444Z,17.77
2018-05-21T08:51:28.436Z,17.90
2018-05-21T08:52:28.508Z,17.97
2018-05-21T08:53:28.422Z,18.02
2018-05-21T08:54:28.410Z,18.11
2018-05-21T08:55:28.409Z,18.17
2018-05-21T08:56:28.479Z,18.36
2018-05-21T08:57:28.387Z,18.52
2018-05-21T08:58:28.383Z,18.52
2018-05-21T08:59:28.367Z,18.55
2018-05-21T09:00:28.429Z,18.69
2018-05-21T09:01:28.353Z,18.55
2018-05-21T09:02:28.345Z,18.42
2018-05-21T09:03:28.338Z,18.21
2018-05-21T09:04:28.326Z,18.37
2018-05-21T09:05:28.318Z,18.48
2018-05-21T09:06:28.320Z,18.57
2018-05-21T09:07:28.304Z,18.57
2018-05-21T09:08:28.299Z,18.72
2018-05-21T09:09:28.290Z,18.65
2018-05-21T09:10:28.280Z,18.62
2018-05-21T09:11:28.271Z,18.70
2018-05-21T09:12:28.306Z,18.76
2018-05-21T09:13:28.251Z,18.82
2018-05-21T09:14:28.245Z,18.92
2018-05-21T09:15:28.242Z,18.94
2018-05-21T09:16:28.275Z,18.95
2018-05-21T09:17:28.227Z,19.11
2018-05-21T09:18:28.214Z,19.19
2018-05-21T09:19:28.211Z,19.18
2018-05-21T09:20:28.202Z,19.19
2018-05-21T09:21:28.193Z,19.13
2018-05-21T09:22:28.187Z,19.14
2018-05-21T09:23:28.175Z,19.21
2018-05-21T09:24:28.171Z,19.21
2018-05-21T09:25:28.163Z,19.13
2018-05-21T09:26:28.155Z,19.16
2018-05-21T09:27:28.146Z,19.04
2018-05-21T09:28:28.136Z,18.88
2018-05-21T09:29:28.135Z,18.95
2018-05-21T09:30:28.120Z,18.92
2018-05-21T09:31:28.183Z,18.94
2018-05-21T09:32:28.182Z,18.90
2018-05-21T09:33:28.098Z,19.04
2018-05-21T09:34:28.095Z,18.85
2018-05-21T09:35:28.082Z,18.88
2018-05-21T09:36:28.078Z,18.87
2018-05-21T09:37:28.069Z,18.90
2018-05-21T09:38:28.061Z,18.81
2018-05-21T09:39:28.054Z,18.92
2018-05-21T09:40:28.049Z,19.02
2018-05-21T09:41:28.037Z,19.04
2018-05-21T09:42:28.030Z,19.13
2018-05-21T09:43:28.024Z,19.22
2018-05-21T09:44:28.018Z,19.37
2018-05-21T09:45:28.007Z,19.46
2018-05-21T09:46:27.996Z,19.55
2018-05-21T09:47:27.993Z,19.68
2018-05-21T09:48:27.983Z,19.77
2018-05-21T09:49:27.978Z,19.76
2018-05-21T09:50:27.969Z,19.76
2018-05-21T09:51:27.968Z,19.61
2018-05-21T09:52:27.955Z,19.73
2018-05-21T09:53:27.952Z,19.73
2018-05-21T09:54:27.938Z,19.81
2018-05-21T09:55:27.936Z,19.88
2018-05-21T09:56:27.925Z,19.99
2018-05-21T09:57:27.926Z,20.10
2018-05-21T09:58:27.911Z,20.14
2018-05-21T09:59:27.904Z,20.08
2018-05-21T10:00:27.902Z,20.08
2018-05-21T10:01:27.887Z,20.11
2018-05-21T10:02:27.883Z,20.20
2018-05-21T10:03:27.877Z,20.21
2018-05-21T10:04:27.871Z,20.28
2018-05-21T10:05:27.863Z,20.32
2018-05-21T10:06:27.856Z,20.20
2018-05-21T10:07:27.838Z,20.11
2018-05-21T10:08:27.839Z,20.21
2018-05-21T10:09:27.834Z,20.33
2018-05-21T10:10:27.822Z,20.39
2018-05-21T10:11:27.817Z,20.54
2018-05-21T10:12:27.813Z,20.57
2018-05-21T10:13:27.810Z,20.70
2018-05-21T10:14:27.795Z,20.73
2018-05-21T10:15:27.790Z,20.82
2018-05-21T10:16:27.791Z,20.73
2018-05-21T10:17:27.778Z,20.69
2018-05-21T10:18:27.767Z,20.54
2018-05-21T10:19:27.812Z,20.58
2018-05-21T10:20:27.750Z,20.58
2018-05-21T10:21:27.756Z,20.72
2018-05-21T10:22:27.752Z,20.74
2018-05-21T10:23:27.735Z,20.87
2018-05-21T10:24:27.729Z,20.70
2018-05-21T10:25:27.723Z,20.72
2018-05-21T10:26:27.711Z,20.72
2018-05-21T10:27:27.707Z,20.70
2018-05-21T10:28:27.699Z,20.72
2018-05-21T10:29:27.694Z,20.70
2018-05-21T10:30:27.687Z,20.48
2018-05-21T10:31:27.679Z,20.35
2018-05-21T10:32:27.679Z,20.61
2018-05-21T10:33:27.670Z,20.62
2018-05-21T10:34:27.659Z,20.41
2018-05-21T10:35:27.654Z,20.16
2018-05-21T10:36:27.648Z,20.08
2018-05-21T10:37:27.640Z,20.13
2018-05-21T10:38:27.632Z,20.24
2018-05-21T10:39:27.634Z,20.41
2018-05-21T10:40:27.624Z,20.33
2018-05-21T10:41:27.611Z,20.24
2018-05-21T10:42:27.603Z,20.20
2018-05-21T10:43:27.595Z,20.14
2018-05-21T10:44:27.592Z,20.28
2018-05-21T10:45:27.585Z,20.28
2018-05-21T10:46:27.579Z,20.21
2018-05-21T10:47:27.586Z,20.10
2018-05-21T10:48:27.562Z,20.02
2018-05-21T10:49:27.558Z,19.92
2018-05-21T10:50:27.547Z,19.86
2018-05-21T10:51:27.562Z,19.83
2018-05-21T10:52:27.540Z,19.73
2018-05-21T10:53:27.529Z,19.69
2018-05-21T10:54:27.525Z,19.78
2018-05-21T10:55:27.518Z,19.68
2018-05-21T10:56:27.511Z,19.58
2018-05-21T10:57:27.510Z,19.54
2018-05-21T10:58:27.496Z,19.55
2018-05-21T10:59:27.494Z,19.59
2018-05-21T11:00:27.480Z,19.61
2018-05-21T11:01:27.480Z,19.74
2018-05-21T11:02:27.470Z,19.73
2018-05-21T11:03:27.468Z,20.02
2018-05-21T11:04:27.453Z,20.21
2018-05-21T11:05:27.449Z,20.14
2018-05-21T11:06:27.439Z,20.10
2018-05-21T11:07:27.439Z,20.33
2018-05-21T11:08:27.427Z,20.39
2018-05-21T11:09:27.417Z,20.55
2018-05-21T11:10:27.409Z,20.79
2018-05-21T11:11:27.406Z,20.94
2018-05-21T11:12:27.402Z,20.98
2018-05-21T11:13:27.400Z,21.12
2018-05-21T11:14:27.386Z,21.14
2018-05-21T11:15:27.377Z,21.38
2018-05-21T11:16:27.387Z,21.52
2018-05-21T11:17:27.370Z,21.34
2018-05-21T11:18:27.368Z,21.53
2018-05-21T11:19:27.352Z,21.56
2018-05-21T11:20:27.348Z,21.80
2018-05-21T11:21:27.337Z,21.83
2018-05-21T11:22:27.331Z,21.91
2018-05-21T11:23:27.326Z,21.86
2018-05-21T11:24:27.321Z,21.86
2018-05-21T11:25:27.320Z,21.91
2018-05-21T11:26:27.306Z,21.88
2018-05-21T11:27:27.301Z,22.09
2018-05-21T11:28:27.291Z,21.96
2018-05-21T11:29:27.291Z,21.82
2018-05-21T11:30:27.285Z,21.91
2018-05-21T11:31:27.279Z,21.67
2018-05-21T11:32:27.278Z,21.82
2018-05-21T11:33:27.268Z,21.84
2018-05-21T11:34:27.263Z,22.00
2018-05-21T11:35:27.252Z,22.20
2018-05-21T11:36:27.251Z,22.27
2018-05-21T11:37:27.246Z,22.36
2018-05-21T11:38:27.239Z,22.46
2018-05-21T11:39:27.233Z,22.55
2018-05-21T11:40:27.226Z,22.64
2018-05-21T11:41:27.222Z,22.52
2018-05-21T11:42:27.211Z,22.58
2018-05-21T11:43:27.205Z,22.70
2018-05-21T11:44:27.205Z,22.67
2018-05-21T11:45:27.195Z,22.62
2018-05-21T11:46:27.229Z,22.65
2018-05-21T11:47:27.186Z,22.72
2018-05-21T11:48:27.179Z,22.67
2018-05-21T11:49:27.171Z,22.79
2018-05-21T11:50:27.164Z,22.82
2018-05-21T11:51:27.164Z,22.82
2018-05-21T11:52:27.155Z,22.79
2018-05-21T11:53:27.152Z,22.82
2018-05-21T11:54:27.146Z,22.75
2018-05-21T11:55:27.143Z,22.79
2018-05-21T11:56:27.133Z,22.86
2018-05-21T11:57:27.125Z,22.92
2018-05-21T11:58:27.121Z,22.94
2018-05-21T11:59:27.120Z,22.88
2018-05-21T12:00:27.112Z,22.86
2018-05-21T12:01:27.112Z,22.83
2018-05-21T12:02:27.104Z,22.80
2018-05-21T12:03:27.096Z,22.91
2018-05-21T12:04:27.094Z,23.05
2018-05-21T12:05:27.084Z,22.85
2018-05-21T12:06:27.080Z,22.68
2018-05-21T12:07:27.077Z,22.68
2018-05-21T12:08:27.071Z,22.60
2018-05-21T12:09:27.065Z,22.65
2018-05-21T12:10:27.055Z,22.60
2018-05-21T12:11:27.058Z,22.62
2018-05-21T12:12:27.047Z,22.61
2018-05-21T12:13:27.127Z,22.54
2018-05-21T12:14:27.039Z,22.37
2018-05-21T12:15:27.033Z,22.28
2018-05-21T12:16:27.026Z,22.07
2018-05-21T12:17:27.022Z,22.10
2018-05-21T12:18:27.018Z,21.88
2018-05-21T12:19:27.020Z,21.90
2018-05-21T12:20:27.013Z,21.82
2018-05-21T12:21:27.008Z,21.75
2018-05-21T12:22:27.036Z,21.68
2018-05-21T12:23:26.988Z,21.64
2018-05-21T12:24:26.981Z,21.61
2018-05-21T12:25:26.979Z,21.53
2018-05-21T12:26:26.980Z,21.53
2018-05-21T12:27:26.969Z,21.53
2018-05-21T12:28:26.963Z,21.52
2018-05-21T12:29:26.959Z,21.56
2018-05-21T12:30:26.949Z,21.52
2018-05-21T12:31:26.947Z,21.53
2018-05-21T12:32:26.942Z,21.43
2018-05-21T12:33:26.938Z,21.37
2018-05-21T12:34:26.928Z,21.24
2018-05-21T12:35:26.922Z,21.27
2018-05-21T12:36:26.929Z,21.28
2018-05-21T12:37:26.912Z,21.28
2018-05-21T12:38:26.908Z,21.19
2018-05-21T12:39:26.899Z,21.21
2018-05-21T12:40:26.889Z,21.27
2018-05-21T12:41:26.891Z,21.43
2018-05-21T12:42:26.881Z,21.69
2018-05-21T12:43:26.875Z,21.94
2018-05-21T12:44:26.889Z,22.06
2018-05-21T12:45:26.860Z,22.27
2018-05-21T12:46:26.859Z,22.35
2018-05-21T12:47:26.851Z,22.58
2018-05-21T12:48:26.851Z,22.68
2018-05-21T12:49:26.843Z,22.61
2018-05-21T12:50:26.837Z,22.55
2018-05-21T12:51:26.914Z,22.51
2018-05-21T12:52:26.824Z,22.61
2018-05-21T12:53:26.826Z,22.72